Thursday, April 19, 2018, 4:19 PM CDT
Back to Local

KGCK, Garden City Regional Airport

Location: Garden City, KS, United States Lat: 37.917
Local Time: 4:19 PM CDT (21:19 GMT) Lon: -100.717
Time Zone: US/Central Elev: 2890 ft

Show me the last for .
Show Decoded

2018-04-19 15:54 METAR KGCK 192054Z 16016G24KT 10SM CLR 17/M04 A3028 RMK AO2 SLP252 T01721039
                 58034 =
2018-04-19 14:54 METAR KGCK 191954Z 13012G22KT 10SM CLR 17/M03 A3032 RMK AO2 SLP267 T01721028 =
2018-04-19 13:54 METAR KGCK 191854Z 13012G20KT 10SM CLR 15/M02 A3036 RMK AO2 WSHFT 1814 SLP281
                 T01501022 =
2018-04-19 13:34 METAR KGCK 191834Z 07010KT 10SM CLR 14/M02 A3037 RMK AO2 WSHFT 1814 T01441022 =
2018-04-19 12:54 METAR KGCK 191754Z 11011G16KT 10SM CLR 14/M02 A3039 RMK AO2 SLP292 T01391022
                 10139 21022 58008 =
2018-04-19 11:54 METAR KGCK 191654Z 07008KT 10SM CLR 13/M02 A3042 RMK AO2 SLP299 T01281022 =
2018-04-19 10:54 METAR KGCK 191554Z 08008KT 10SM CLR 11/M02 A3042 RMK AO2 SLP300 T01061017 =
2018-04-19 09:54 METAR KGCK 191454Z 08007KT 10SM CLR 09/M02 A3041 RMK AO2 SLP299 T00891017 51013
                 =
2018-04-19 08:54 METAR KGCK 191354Z 00000KT 10SM CLR 06/M02 A3041 RMK AO2 SLP302 T00611022 =
2018-04-19 07:54 METAR KGCK 191254Z 29005KT 10SM CLR 01/M03 A3040 RMK AO2 SLP298 T00061033 =
2018-04-19 06:54 METAR KGCK 191154Z AUTO 27006KT 10SM CLR M02/M05 A3037 RMK AO2 SLP289 T10171050
                 10028 21028 53012 =
2018-04-19 05:54 METAR KGCK 191054Z AUTO 00000KT 10SM CLR M01/M06 A3035 RMK AO2 SLP279 T10111056
                 =
2018-04-19 04:54 METAR KGCK 190954Z AUTO 00000KT 10SM CLR M01/M05 A3035 RMK AO2 SLP278 T10061050
                 =
2018-04-19 03:54 METAR KGCK 190854Z AUTO 12004KT 10SM CLR 02/M04 A3033 RMK AO2 SLP270 T00171044
                 51009 =
2018-04-19 02:54 METAR KGCK 190754Z AUTO 11007KT 10SM CLR 01/M04 A3033 RMK AO2 SLP267 T00111044 =
2018-04-19 01:54 METAR KGCK 190654Z AUTO 09006KT 10SM CLR 01/M05 A3032 RMK AO2 SLP265 T00111050 =
2018-04-19 00:54 METAR KGCK 190554Z AUTO 08007KT 10SM CLR 02/M05 A3031 RMK AO2 SLP262 T00221050
                 10161 20022 401780022 51019 =
2018-04-18 23:54 METAR KGCK 190454Z AUTO 09009KT 10SM CLR 05/M06 A3029 RMK AO2 SLP255 T00501056 =
2018-04-18 22:54 METAR KGCK 190354Z AUTO 04008KT 10SM CLR 08/M08 A3027 RMK AO2 SLP245 T00781078 =
2018-04-18 21:54 METAR KGCK 190254Z AUTO 03006KT 10SM CLR 08/M08 A3025 RMK AO2 SLP239 T00831078
                 53017 =
2018-04-18 20:54 METAR KGCK 190154Z 36007KT 10SM CLR 07/M08 A3022 RMK AO2 SLP237 T00671083 =
2018-04-18 19:54 METAR KGCK 190054Z 36012KT 10SM CLR 14/M08 A3020 RMK AO2 SLP225 T01391078 =
2018-04-18 18:54 METAR KGCK 182354Z 36015G21KT 10SM CLR 16/M08 A3019 RMK AO2 PK WND 34034/2257
                 SLP219 T01611083 10178 20156 53002 =
2018-04-18 17:54 METAR KGCK 182254Z 36015G27KT 10SM CLR 17/M09 A3018 RMK AO2 PK WND 34033/2201
                 SLP215 T01671089 =
2018-04-18 16:54 METAR KGCK 182154Z 35020G28KT 10SM CLR 17/M08 A3018 RMK AO2 PK WND 34036/2128
                 SLP213 T01721083 =

Support USWX by starting your Amazon purchase here.